createdAt,value
2023-03-06T00:00:55.491Z,77.30
2023-03-06T00:03:26.027Z,77.30
2023-03-06T00:05:57.120Z,77.30
2023-03-06T00:08:25.500Z,77.30
2023-03-06T00:10:53.490Z,77.40
2023-03-06T00:13:21.611Z,77.30
2023-03-06T00:15:50.220Z,77.40
2023-03-06T00:18:18.093Z,77.60
2023-03-06T00:20:46.074Z,77.60
2023-03-06T00:23:15.488Z,77.80
2023-03-06T00:25:44.586Z,77.90
2023-03-06T00:28:14.762Z,78.40
2023-03-06T00:30:43.259Z,78.40
2023-03-06T00:33:11.291Z,78.90
2023-03-06T00:35:39.796Z,79.30
2023-03-06T00:38:07.719Z,79.50
2023-03-06T00:40:36.880Z,79.70
2023-03-06T00:43:04.659Z,79.80
2023-03-06T00:45:32.660Z,79.90
2023-03-06T00:48:00.552Z,80.00
2023-03-06T00:50:29.183Z,80.10
2023-03-06T00:52:56.987Z,80.20
2023-03-06T00:55:24.796Z,80.10
2023-03-06T00:57:53.973Z,80.40
2023-03-06T01:00:22.042Z,80.40
2023-03-06T01:02:49.940Z,80.40
2023-03-06T01:05:17.884Z,80.60
2023-03-06T01:07:45.700Z,80.60
2023-03-06T01:10:13.794Z,80.70
2023-03-06T01:12:41.659Z,80.80
2023-03-06T01:15:13.635Z,80.90
2023-03-06T01:17:41.435Z,80.90
2023-03-06T01:20:12.766Z,81.00
2023-03-06T01:22:40.583Z,80.90
2023-03-06T01:25:09.133Z,81.00
2023-03-06T01:27:36.923Z,81.10
2023-03-06T01:30:05.497Z,81.00
2023-03-06T01:32:34.784Z,81.00
2023-03-06T01:35:03.758Z,81.00
2023-03-06T01:37:31.627Z,81.20
2023-03-06T01:39:59.467Z,81.30
2023-03-06T01:42:27.279Z,81.60
2023-03-06T01:45:00.111Z,81.80
2023-03-06T01:47:28.093Z,81.80
2023-03-06T01:49:58.710Z,82.20
2023-03-06T01:52:30.267Z,82.60
2023-03-06T01:55:03.049Z,83.10
2023-03-06T01:57:34.709Z,83.40
2023-03-06T02:00:08.066Z,83.50
2023-03-06T02:02:36.339Z,83.60
2023-03-06T02:05:08.382Z,83.50
2023-03-06T02:07:37.121Z,83.50
2023-03-06T02:10:05.594Z,83.40
2023-03-06T02:12:34.464Z,83.70
2023-03-06T02:15:02.410Z,83.70
2023-03-06T02:17:31.061Z,83.70
2023-03-06T02:20:09.901Z,83.80
2023-03-06T02:22:44.544Z,83.90
2023-03-06T02:25:27.110Z,84.00
2023-03-06T02:27:54.932Z,83.90
2023-03-06T02:30:23.437Z,84.00
2023-03-06T02:32:51.240Z,84.00
2023-03-06T02:35:20.773Z,84.00
2023-03-06T02:37:48.689Z,83.90
2023-03-06T02:40:19.553Z,83.90
2023-03-06T02:42:51.035Z,84.00
2023-03-06T02:45:23.853Z,84.20
2023-03-06T02:47:51.657Z,84.30
2023-03-06T02:50:19.705Z,84.50
2023-03-06T02:52:47.552Z,84.60
2023-03-06T02:55:15.412Z,84.50
2023-03-06T02:57:43.302Z,84.90
2023-03-06T03:00:14.110Z,84.70
2023-03-06T03:02:42.414Z,85.00
2023-03-06T03:05:10.512Z,85.00
2023-03-06T03:07:38.347Z,85.00
2023-03-06T03:10:07.073Z,85.00
2023-03-06T03:12:34.903Z,84.80
2023-03-06T03:15:02.763Z,85.00
2023-03-06T03:17:31.999Z,85.20
2023-03-06T03:20:00.279Z,85.40
2023-03-06T03:22:28.145Z,85.40
2023-03-06T03:24:56.159Z,85.30
2023-03-06T03:27:24.091Z,85.40
2023-03-06T03:29:52.064Z,85.20
2023-03-06T03:32:19.990Z,85.30
2023-03-06T03:34:49.316Z,85.20
2023-03-06T03:37:17.224Z,85.30
2023-03-06T03:39:45.124Z,85.20
2023-03-06T03:42:13.043Z,85.10
2023-03-06T03:44:40.872Z,84.80
2023-03-06T03:47:08.772Z,85.10
2023-03-06T03:49:36.600Z,85.10
2023-03-06T03:52:06.221Z,85.20
2023-03-06T03:54:34.150Z,85.20
2023-03-06T03:57:02.011Z,85.30
2023-03-06T03:59:29.847Z,85.30
2023-03-06T04:01:58.153Z,85.00
2023-03-06T04:04:26.576Z,85.20
2023-03-06T04:06:54.468Z,85.00
2023-03-06T04:09:24.192Z,85.20
2023-03-06T04:11:52.070Z,85.30
2023-03-06T04:14:19.913Z,85.30
2023-03-06T04:16:47.836Z,85.40
2023-03-06T04:19:15.799Z,85.30
2023-03-06T04:21:43.685Z,85.20
2023-03-06T04:24:11.572Z,85.30
2023-03-06T04:26:40.804Z,85.40
2023-03-06T04:29:08.755Z,85.40
2023-03-06T04:31:36.646Z,85.20
2023-03-06T04:34:04.986Z,85.10
2023-03-06T04:36:35.272Z,85.10
2023-03-06T04:39:03.406Z,85.20
2023-03-06T04:41:31.356Z,85.20
2023-03-06T04:44:00.637Z,85.10
2023-03-06T04:46:28.439Z,85.30
2023-03-06T04:48:56.260Z,85.40
2023-03-06T04:51:24.090Z,85.40
2023-03-06T04:53:52.194Z,85.40
2023-03-06T04:56:20.062Z,85.60
2023-03-06T04:58:48.211Z,85.60
2023-03-06T05:01:17.481Z,85.70
2023-03-06T05:03:45.326Z,85.60
2023-03-06T05:06:13.388Z,85.30
2023-03-06T05:08:41.277Z,85.60
2023-03-06T05:11:09.306Z,85.70
2023-03-06T05:13:37.228Z,85.80
2023-03-06T05:16:06.365Z,85.80
2023-03-06T05:18:36.777Z,85.80
2023-03-06T05:21:05.983Z,85.80
2023-03-06T05:23:36.141Z,85.80
2023-03-06T05:26:08.012Z,85.80
2023-03-06T05:28:36.030Z,86.20
2023-03-06T05:31:03.861Z,85.90
2023-03-06T05:33:32.724Z,86.00
2023-03-06T05:36:02.532Z,86.10
2023-03-06T05:38:30.571Z,86.20
2023-03-06T05:40:58.390Z,86.30
2023-03-06T05:43:26.427Z,86.30
2023-03-06T05:46:02.353Z,86.40
2023-03-06T05:48:30.298Z,86.60
2023-03-06T05:50:58.448Z,86.90
2023-03-06T05:53:29.274Z,86.90
2023-03-06T05:55:58.589Z,87.00
2023-03-06T05:58:26.595Z,86.80
2023-03-06T06:00:54.504Z,86.80
2023-03-06T06:03:22.510Z,87.10
2023-03-06T06:05:50.832Z,87.10
2023-03-06T06:08:18.827Z,87.10
2023-03-06T06:10:48.022Z,87.50
2023-03-06T06:13:15.857Z,87.70
2023-03-06T06:15:43.751Z,88.10
2023-03-06T06:18:11.657Z,88.30
2023-03-06T06:20:40.079Z,88.50
2023-03-06T06:23:07.976Z,88.50
2023-03-06T06:25:35.805Z,88.70
2023-03-06T06:28:05.644Z,88.90
2023-03-06T06:30:34.424Z,88.90
2023-03-06T06:33:02.257Z,89.00
2023-03-06T06:35:30.102Z,89.10
2023-03-06T06:37:57.979Z,89.10
2023-03-06T06:40:27.483Z,89.10
2023-03-06T06:42:55.331Z,89.20
2023-03-06T06:45:24.511Z,89.50
2023-03-06T06:47:52.410Z,89.30
2023-03-06T06:50:20.692Z,89.20
2023-03-06T06:52:48.590Z,89.20
2023-03-06T06:55:16.708Z,89.20
2023-03-06T06:57:44.798Z,89.30
2023-03-06T07:00:15.255Z,89.40
2023-03-06T07:02:44.487Z,89.40
2023-03-06T07:05:13.006Z,89.40
2023-03-06T07:07:40.845Z,89.50
2023-03-06T07:10:13.229Z,89.50
2023-03-06T07:12:41.100Z,89.40
2023-03-06T07:15:10.260Z,89.20
2023-03-06T07:17:38.108Z,89.20
2023-03-06T07:20:10.189Z,89.40
2023-03-06T07:22:50.433Z,89.70
2023-03-06T07:25:20.293Z,89.70
2023-03-06T07:27:53.252Z,89.50
2023-03-06T07:30:23.250Z,89.50
2023-03-06T07:32:53.802Z,89.50
2023-03-06T07:35:23.959Z,89.60
2023-03-06T07:37:52.172Z,89.60
2023-03-06T07:40:20.828Z,89.60
2023-03-06T07:42:49.291Z,89.50
2023-03-06T07:45:17.500Z,89.60
2023-03-06T07:47:45.352Z,89.30
2023-03-06T07:50:13.640Z,89.30
2023-03-06T07:52:42.822Z,89.40
2023-03-06T07:55:11.592Z,89.40
2023-03-06T07:57:39.963Z,89.40
2023-03-06T08:00:11.308Z,89.20
2023-03-06T08:02:39.233Z,89.30
2023-03-06T08:05:08.756Z,89.10
2023-03-06T08:07:37.044Z,88.90
2023-03-06T08:10:07.013Z,88.50
2023-03-06T08:12:34.861Z,88.40
2023-03-06T08:15:03.406Z,88.70
2023-03-06T08:17:31.206Z,88.70
2023-03-06T08:19:59.185Z,88.60
2023-03-06T08:22:27.036Z,88.30
2023-03-06T08:24:56.282Z,88.40
2023-03-06T08:27:25.526Z,88.50
2023-03-06T08:29:53.375Z,88.70
2023-03-06T08:32:21.253Z,88.30
2023-03-06T08:34:49.105Z,88.20
2023-03-06T08:37:16.953Z,87.80
2023-03-06T08:39:44.798Z,87.80
2023-03-06T08:42:12.868Z,88.20
2023-03-06T08:44:42.127Z,88.00
2023-03-06T08:47:09.989Z,88.40
2023-03-06T08:49:39.475Z,88.20
2023-03-06T08:52:07.724Z,87.90
2023-03-06T08:54:36.420Z,87.10
2023-03-06T08:57:04.434Z,87.70
2023-03-06T08:59:32.290Z,87.70
2023-03-06T09:02:01.547Z,87.20
2023-03-06T09:04:31.573Z,86.60
2023-03-06T09:07:01.581Z,86.40
2023-03-06T09:09:29.445Z,85.80
2023-03-06T09:11:57.284Z,86.40
2023-03-06T09:14:25.101Z,86.40
2023-03-06T09:16:53.047Z,86.00
2023-03-06T09:19:22.275Z,85.50
2023-03-06T09:21:50.122Z,85.50
2023-03-06T09:24:18.016Z,85.40
2023-03-06T09:26:47.649Z,85.30
2023-03-06T09:29:17.453Z,84.40
2023-03-06T09:31:45.484Z,83.70
2023-03-06T09:34:13.409Z,82.60
2023-03-06T09:36:55.543Z,82.80
2023-03-06T09:39:25.534Z,82.30
2023-03-06T09:41:54.208Z,82.70
2023-03-06T09:44:25.904Z,82.10
2023-03-06T09:47:06.865Z,81.90
2023-03-06T09:49:43.709Z,81.20
2023-03-06T09:52:28.098Z,80.30
2023-03-06T09:54:58.252Z,80.10
2023-03-06T09:57:28.317Z,79.70
2023-03-06T10:00:01.423Z,80.60
2023-03-06T10:02:38.085Z,79.30
2023-03-06T10:05:11.442Z,80.00
2023-03-06T10:07:47.492Z,79.30
2023-03-06T10:10:21.655Z,78.20
2023-03-06T10:12:57.689Z,77.10
2023-03-06T10:15:29.057Z,78.90
2023-03-06T10:17:57.519Z,77.70
2023-03-06T10:20:37.348Z,72.40
2023-03-06T10:23:24.885Z,72.30
2023-03-06T10:25:59.760Z,74.70
2023-03-06T10:28:30.886Z,73.00
2023-03-06T10:31:03.917Z,75.80
2023-03-06T10:33:48.634Z,74.40
2023-03-06T10:36:18.619Z,71.60
2023-03-06T10:38:51.160Z,70.50
2023-03-06T10:41:25.741Z,70.80
2023-03-06T10:44:19.723Z,72.70
2023-03-06T10:46:51.399Z,70.80
2023-03-06T10:49:38.359Z,69.90
2023-03-06T10:52:20.338Z,66.70
2023-03-06T10:54:49.854Z,64.80
2023-03-06T10:57:26.280Z,65.80
2023-03-06T10:59:56.128Z,64.70
2023-03-06T11:02:30.342Z,65.30
2023-03-06T11:04:59.939Z,64.30
2023-03-06T11:07:29.242Z,64.80
2023-03-06T11:10:18.911Z,65.00
2023-03-06T11:12:59.650Z,66.60
2023-03-06T11:15:28.826Z,66.80
2023-03-06T11:18:00.648Z,66.90
2023-03-06T11:20:44.902Z,64.10
2023-03-06T11:23:20.198Z,65.80
2023-03-06T11:25:53.808Z,64.70
2023-03-06T11:28:26.896Z,64.30
2023-03-06T11:30:59.685Z,61.70
2023-03-06T11:33:32.215Z,59.20
2023-03-06T11:36:09.580Z,59.00
2023-03-06T11:38:45.007Z,58.80
2023-03-06T11:41:21.671Z,59.40
2023-03-06T11:43:57.823Z,58.00
2023-03-06T11:46:29.792Z,58.20
2023-03-06T11:49:05.397Z,57.70
2023-03-06T11:51:38.940Z,59.40
2023-03-06T11:54:07.081Z,60.30
2023-03-06T11:56:48.993Z,60.40
2023-03-06T11:59:30.109Z,60.10
2023-03-06T12:02:06.849Z,58.70
2023-03-06T12:04:51.495Z,60.80
2023-03-06T12:07:31.851Z,59.90
2023-03-06T12:10:10.712Z,62.30
2023-03-06T12:13:07.118Z,60.00
2023-03-06T12:15:49.707Z,58.60
2023-03-06T12:18:30.485Z,56.60
2023-03-06T12:21:05.538Z,57.50
2023-03-06T12:23:52.763Z,57.70
2023-03-06T12:26:40.218Z,57.20
2023-03-06T12:29:23.684Z,57.60
2023-03-06T12:32:01.945Z,53.30
2023-03-06T12:34:42.411Z,53.30
2023-03-06T12:37:22.296Z,55.40
2023-03-06T12:40:15.832Z,55.00
2023-03-06T12:43:03.733Z,54.40
2023-03-06T12:45:34.062Z,54.90
2023-03-06T12:48:02.781Z,56.10
2023-03-06T12:50:33.218Z,58.00
2023-03-06T12:53:05.454Z,59.40
2023-03-06T12:55:40.616Z,58.90
2023-03-06T12:58:48.453Z,59.20
2023-03-06T13:01:38.251Z,59.30
2023-03-06T13:04:29.554Z,60.00
2023-03-06T13:07:12.266Z,57.20
2023-03-06T13:09:57.510Z,58.30
2023-03-06T13:12:41.723Z,54.30
2023-03-06T13:15:42.950Z,54.30
2023-03-06T13:18:47.141Z,55.90
2023-03-06T13:22:01.246Z,54.70
2023-03-06T13:24:31.555Z,55.00
2023-03-06T13:27:07.648Z,55.00
2023-03-06T13:30:22.952Z,52.30
2023-03-06T13:32:53.046Z,54.60
2023-03-06T13:35:52.001Z,53.40
2023-03-06T13:38:53.893Z,54.70
2023-03-06T13:41:45.152Z,53.20
2023-03-06T13:44:50.810Z,55.70
2023-03-06T13:48:10.568Z,54.20
2023-03-06T13:50:40.940Z,51.30
2023-03-06T13:53:44.388Z,52.10
2023-03-06T13:56:47.532Z,53.90
2023-03-06T13:59:45.841Z,51.30
2023-03-06T14:02:40.664Z,53.30
2023-03-06T14:05:13.359Z,51.10
2023-03-06T14:07:44.044Z,50.00
2023-03-06T14:10:25.617Z,51.10
2023-03-06T14:13:02.839Z,51.00
2023-03-06T14:15:38.120Z,50.20
2023-03-06T14:18:08.506Z,53.90
2023-03-06T14:20:43.225Z,51.80
2023-03-06T14:23:29.196Z,51.00
2023-03-06T14:26:03.850Z,52.40
2023-03-06T14:28:33.791Z,52.40
2023-03-06T14:31:03.531Z,53.00
2023-03-06T14:33:33.989Z,53.60
2023-03-06T14:36:04.329Z,55.00
2023-03-06T14:38:37.165Z,54.10
2023-03-06T14:41:07.546Z,53.10
2023-03-06T14:43:35.438Z,52.90
2023-03-06T14:46:05.103Z,52.50
2023-03-06T14:48:42.261Z,53.40
2023-03-06T14:51:17.514Z,54.70
2023-03-06T14:53:48.477Z,53.80
2023-03-06T14:56:20.073Z,53.00
2023-03-06T14:58:54.023Z,52.80
2023-03-06T15:01:32.566Z,52.90
2023-03-06T15:04:01.939Z,53.80
2023-03-06T15:06:34.390Z,54.30
2023-03-06T15:09:07.593Z,54.80
2023-03-06T15:11:57.495Z,54.00
2023-03-06T15:14:33.167Z,54.50
2023-03-06T15:17:22.940Z,55.60
2023-03-06T15:19:54.131Z,53.90
2023-03-06T15:22:37.294Z,53.00
2023-03-06T15:25:26.503Z,52.70
2023-03-06T15:27:58.123Z,53.70
2023-03-06T15:30:29.193Z,53.30
2023-03-06T15:33:24.717Z,53.30
2023-03-06T15:35:56.869Z,52.60
2023-03-06T15:38:30.986Z,53.50
2023-03-06T15:41:01.009Z,52.70
2023-03-06T15:43:35.288Z,52.80
2023-03-06T15:46:05.851Z,52.70
2023-03-06T15:48:35.262Z,52.70
2023-03-06T15:51:04.646Z,53.00
2023-03-06T15:53:32.510Z,53.30
2023-03-06T15:56:00.750Z,53.10
2023-03-06T15:58:32.002Z,52.90
2023-03-06T16:00:59.899Z,53.60
2023-03-06T16:03:27.821Z,52.90
2023-03-06T16:05:55.652Z,53.30
2023-03-06T16:08:23.479Z,52.60
2023-03-06T16:10:52.402Z,51.90
2023-03-06T16:13:25.964Z,52.10
2023-03-06T16:15:55.690Z,53.40
2023-03-06T16:18:23.620Z,53.70
2023-03-06T16:20:51.452Z,53.90
2023-03-06T16:23:19.284Z,53.70
2023-03-06T16:25:49.907Z,54.10
2023-03-06T16:28:18.371Z,54.80
2023-03-06T16:30:46.656Z,54.40
2023-03-06T16:33:15.921Z,54.30
2023-03-06T16:35:46.429Z,54.50
2023-03-06T16:38:15.504Z,55.50
2023-03-06T16:40:43.328Z,55.60
2023-03-06T16:43:13.610Z,55.80
2023-03-06T16:45:43.105Z,56.00
2023-03-06T16:48:17.768Z,55.40
2023-03-06T16:50:45.997Z,55.60
2023-03-06T16:53:15.314Z,56.60
2023-03-06T16:55:43.192Z,56.70
2023-03-06T16:58:11.018Z,57.30
2023-03-06T17:00:38.835Z,57.70
2023-03-06T17:03:07.347Z,57.70
2023-03-06T17:05:37.879Z,58.30
2023-03-06T17:08:06.178Z,58.90
2023-03-06T17:10:34.429Z,59.20
2023-03-06T17:13:02.309Z,59.50
2023-03-06T17:15:30.238Z,60.00
2023-03-06T17:17:58.677Z,59.30
2023-03-06T17:20:26.514Z,58.60
2023-03-06T17:22:55.709Z,59.50
2023-03-06T17:25:23.596Z,61.10
2023-03-06T17:27:51.411Z,66.40
2023-03-06T17:30:19.286Z,70.90
2023-03-06T17:32:47.160Z,75.80
2023-03-06T17:35:15.008Z,77.90
2023-03-06T17:37:42.844Z,79.90
2023-03-06T17:40:15.452Z,81.00
2023-03-06T17:42:43.327Z,82.20
2023-03-06T17:45:11.998Z,82.90
2023-03-06T17:47:39.826Z,83.60
2023-03-06T17:50:08.184Z,84.00
2023-03-06T17:52:37.287Z,84.30
2023-03-06T17:55:05.722Z,84.60
2023-03-06T17:57:34.953Z,84.60
2023-03-06T18:00:02.871Z,84.60
2023-03-06T18:02:30.662Z,84.90
2023-03-06T18:04:58.605Z,85.00
2023-03-06T18:07:26.636Z,85.00
2023-03-06T18:09:54.554Z,84.90
2023-03-06T18:12:22.420Z,85.20
2023-03-06T18:14:51.645Z,85.30
2023-03-06T18:17:19.575Z,85.40
2023-03-06T18:19:47.738Z,85.50
2023-03-06T18:22:15.584Z,85.40
2023-03-06T18:24:43.473Z,85.50
2023-03-06T18:27:11.285Z,85.70
2023-03-06T18:29:39.172Z,85.90
2023-03-06T18:32:10.547Z,85.70
2023-03-06T18:34:38.530Z,85.90
2023-03-06T18:37:06.546Z,86.10
2023-03-06T18:39:34.409Z,86.30
2023-03-06T18:42:03.018Z,86.30
2023-03-06T18:44:30.844Z,86.60
2023-03-06T18:46:59.079Z,86.80
2023-03-06T18:49:28.415Z,86.90
2023-03-06T18:51:56.307Z,87.10
2023-03-06T18:54:25.216Z,87.20
2023-03-06T18:56:53.023Z,87.20
2023-03-06T18:59:21.109Z,87.00
2023-03-06T19:01:49.791Z,86.90
2023-03-06T19:04:17.746Z,87.00
2023-03-06T19:06:47.002Z,87.40
2023-03-06T19:09:14.876Z,87.30
2023-03-06T19:11:43.659Z,87.30
2023-03-06T19:14:15.292Z,87.20
2023-03-06T19:16:43.648Z,87.20
2023-03-06T19:19:11.524Z,87.30
2023-03-06T19:21:39.382Z,87.30
2023-03-06T19:24:13.772Z,87.30
2023-03-06T19:26:41.846Z,87.20
2023-03-06T19:29:09.988Z,87.10
2023-03-06T19:31:37.916Z,87.20
2023-03-06T19:34:05.771Z,87.30
2023-03-06T19:36:34.215Z,87.10
2023-03-06T19:39:04.501Z,87.30
2023-03-06T19:41:34.246Z,87.10
2023-03-06T19:44:04.946Z,87.10
2023-03-06T19:46:32.962Z,87.10
2023-03-06T19:49:02.403Z,87.20
2023-03-06T19:51:30.460Z,87.00
2023-03-06T19:53:58.490Z,87.00
2023-03-06T19:56:28.852Z,87.00
2023-03-06T19:58:58.464Z,86.70
2023-03-06T20:01:28.204Z,86.80
2023-03-06T20:03:58.669Z,86.70
2023-03-06T20:06:28.166Z,86.40
2023-03-06T20:08:56.415Z,86.50
2023-03-06T20:11:26.218Z,86.70
2023-03-06T20:13:54.308Z,86.70
2023-03-06T20:16:23.573Z,86.50
2023-03-06T20:18:51.564Z,86.40
2023-03-06T20:21:20.174Z,86.50
2023-03-06T20:23:48.601Z,86.40
2023-03-06T20:26:16.844Z,86.10
2023-03-06T20:28:44.747Z,86.10
2023-03-06T20:31:16.427Z,86.00
2023-03-06T20:33:47.126Z,86.30
2023-03-06T20:36:16.281Z,86.10
2023-03-06T20:38:45.027Z,86.00
2023-03-06T20:41:15.415Z,86.10
2023-03-06T20:43:43.748Z,86.10
2023-03-06T20:46:13.230Z,85.80
2023-03-06T20:48:41.833Z,85.80
2023-03-06T20:51:21.212Z,85.70
2023-03-06T20:53:50.865Z,85.70
2023-03-06T20:56:21.196Z,85.90
2023-03-06T20:58:49.089Z,85.90
2023-03-06T21:01:20.590Z,85.60
2023-03-06T21:03:48.523Z,85.20
2023-03-06T21:06:18.286Z,85.70
2023-03-06T21:08:46.699Z,85.80
2023-03-06T21:11:14.585Z,85.20
2023-03-06T21:13:42.740Z,85.10
2023-03-06T21:16:13.538Z,85.10
2023-03-06T21:18:41.411Z,84.90
2023-03-06T21:21:10.089Z,85.20
2023-03-06T21:23:40.027Z,85.00
2023-03-06T21:26:08.131Z,84.90
2023-03-06T21:28:35.964Z,85.20
2023-03-06T21:31:06.790Z,85.00
2023-03-06T21:33:34.788Z,85.20
2023-03-06T21:36:02.852Z,85.30
2023-03-06T21:38:31.023Z,85.40
2023-03-06T21:41:07.896Z,85.60
2023-03-06T21:43:35.759Z,85.20
2023-03-06T21:46:03.914Z,85.30
2023-03-06T21:48:31.953Z,85.20
2023-03-06T21:51:07.515Z,85.60
2023-03-06T21:53:35.768Z,85.70
2023-03-06T21:56:05.739Z,85.40
2023-03-06T21:58:33.913Z,85.80
2023-03-06T22:01:01.991Z,85.90
2023-03-06T22:03:30.402Z,85.90
2023-03-06T22:06:07.280Z,85.90
2023-03-06T22:08:35.090Z,86.00
2023-03-06T22:11:08.226Z,86.00
2023-03-06T22:13:36.092Z,86.10
2023-03-06T22:16:03.991Z,86.10
2023-03-06T22:18:31.882Z,86.30
2023-03-06T22:20:59.719Z,86.30
2023-03-06T22:23:27.828Z,86.40
2023-03-06T22:25:55.640Z,86.50
2023-03-06T22:28:24.924Z,86.90
2023-03-06T22:30:52.698Z,87.00
2023-03-06T22:33:20.549Z,86.90
2023-03-06T22:35:48.384Z,87.30
2023-03-06T22:38:16.334Z,87.10
2023-03-06T22:40:44.177Z,87.40
2023-03-06T22:43:12.089Z,87.40
2023-03-06T22:45:41.314Z,87.40
2023-03-06T22:48:11.034Z,87.50
2023-03-06T22:50:39.232Z,87.70
2023-03-06T22:53:07.087Z,87.70
2023-03-06T22:55:36.240Z,87.70
2023-03-06T22:58:04.102Z,87.70
2023-03-06T23:00:31.991Z,87.70
2023-03-06T23:03:01.167Z,87.80
2023-03-06T23:05:29.685Z,87.90
2023-03-06T23:07:57.497Z,87.90
2023-03-06T23:10:25.551Z,88.10
2023-03-06T23:12:53.389Z,88.00
2023-03-06T23:15:21.684Z,88.30
2023-03-06T23:17:51.584Z,88.20
2023-03-06T23:20:21.098Z,88.30
2023-03-06T23:22:48.910Z,88.20
2023-03-06T23:25:16.917Z,88.10
2023-03-06T23:27:44.745Z,88.40
2023-03-06T23:30:13.756Z,88.60
2023-03-06T23:32:41.848Z,88.60
2023-03-06T23:35:10.884Z,88.70
2023-03-06T23:37:40.108Z,88.80
2023-03-06T23:40:09.920Z,88.90
2023-03-06T23:42:37.737Z,89.00
2023-03-06T23:45:07.198Z,89.10
2023-03-06T23:47:35.341Z,89.10
2023-03-06T23:50:03.211Z,89.20
2023-03-06T23:52:31.104Z,89.10
2023-03-06T23:55:00.320Z,89.40
2023-03-06T23:57:28.209Z,89.30
2023-03-06T23:59:56.043Z,89.50
